Time;durP1;ratioP1;P1;durP2;ratioP2;P2;SDS_P1;SDS_P2;PMS_P1;PMS_P2;Temp;Humidity;BMP_temperature;BMP_pressure;BME280_temperature;BME280_humidity;BME280_pressure;Samples;Min_cycle;Max_cycle;Signal;HPM_P1;HPM_P2
2023/06/06 00:01:29;;;;;;;2.67;0.47;;;30.80;99.90;;;;;;4967617;28;20027;-63
2023/06/06 00:03:57;;;;;;;4.05;0.57;;;30.90;99.90;;;;;;4966570;29;20243;-62
2023/06/06 00:06:25;;;;;;;4.72;0.80;;;30.90;99.90;;;;;;4968745;28;20023;-62
2023/06/06 00:08:52;;;;;;;1.52;0.40;;;30.80;99.90;;;;;;4974945;28;20039;-62
2023/06/06 00:11:20;;;;;;;1.75;0.47;;;30.70;99.90;;;;;;4966816;29;20102;-63
2023/06/06 00:13:49;;;;;;;2.08;0.70;;;30.60;99.90;;;;;;4967041;29;20028;-60
2023/06/06 00:16:17;;;;;;;2.15;1.00;;;30.50;99.90;;;;;;4970553;28;20377;-61
2023/06/06 00:18:45;;;;;;;2.38;1.00;;;30.50;99.90;;;;;;4974205;28;20386;-61
2023/06/06 00:21:13;;;;;;;1.10;0.70;;;30.30;99.90;;;;;;4967063;29;20019;-61
2023/06/06 00:23:39;;;;;;;2.10;0.60;;;30.20;99.90;;;;;;4967277;29;20051;-62
2023/06/06 00:26:06;;;;;;;3.28;0.70;;;30.20;99.90;;;;;;4966478;28;20442;-62
2023/06/06 00:28:32;;;;;;;2.80;0.60;;;30.10;99.90;;;;;;4976979;28;20109;-61
2023/06/06 00:30:59;;;;;;;0.90;0.40;;;30.10;99.90;;;;;;4978338;28;20027;-60
2023/06/06 00:33:25;;;;;;;4.72;0.77;;;30.00;99.90;;;;;;4976136;28;20035;-62
2023/06/06 00:35:52;;;;;;;3.00;0.55;;;29.90;99.90;;;;;;4985799;28;20081;-62
2023/06/06 00:38:19;;;;;;;3.10;1.55;;;29.90;99.90;;;;;;4975545;28;20019;-63
2023/06/06 00:40:45;;;;;;;3.53;0.80;;;29.80;99.90;;;;;;4970613;28;20032;-63
2023/06/06 00:43:12;;;;;;;4.50;1.05;;;29.70;99.90;;;;;;4985580;28;20030;-61
2023/06/06 00:45:38;;;;;;;2.70;1.25;;;29.80;99.90;;;;;;4978736;28;20086;-62
2023/06/06 00:48:05;;;;;;;4.03;1.20;;;29.80;99.90;;;;;;4966082;29;20121;-58
2023/06/06 00:50:34;;;;;;;4.72;1.50;;;29.80;99.90;;;;;;4966247;29;20312;-57
2023/06/06 00:53:03;;;;;;;5.47;1.70;;;29.80;99.90;;;;;;4966450;29;20027;-59
2023/06/06 00:55:31;;;;;;;5.88;1.10;;;29.80;99.90;;;;;;4967313;28;20430;-56
2023/06/06 00:58:00;;;;;;;3.58;1.00;;;29.70;99.90;;;;;;4971802;28;20069;-57
2023/06/06 01:00:32;;;;;;;15.30;2.00;;;29.70;99.90;;;;;;4973839;28;20038;-60
2023/06/06 01:03:01;;;;;;;28.92;3.90;;;29.60;99.90;;;;;;4975002;28;20054;-57
2023/06/06 01:05:27;;;;;;;33.78;4.45;;;29.60;99.90;;;;;;4969068;28;20054;-62
2023/06/06 01:07:54;;;;;;;30.13;4.82;;;29.60;99.90;;;;;;4973541;28;20266;-59
2023/06/06 01:10:21;;;;;;;20.67;3.42;;;29.60;99.90;;;;;;4966122;29;20073;-59
2023/06/06 01:13:00;;;;;;;20.02;3.67;;;29.60;99.90;;;;;;4965785;29;20300;-62
2023/06/06 01:15:51;;;;;;;15.65;2.80;;;29.60;99.90;;;;;;4965332;28;20043;-57
2023/06/06 01:18:18;;;;;;;12.05;2.72;;;29.60;99.90;;;;;;4975903;28;20097;-60
2023/06/06 01:20:45;;;;;;;14.48;2.70;;;29.60;99.90;;;;;;4984887;28;20099;-59
2023/06/06 01:23:12;;;;;;;14.02;2.60;;;29.60;99.90;;;;;;4985301;28;20077;-59
2023/06/06 01:25:47;;;;;;;10.57;2.10;;;29.50;99.90;;;;;;4985068;28;20029;-64
2023/06/06 01:28:16;;;;;;;7.10;1.63;;;29.50;99.90;;;;;;4985203;28;20039;-70
2023/06/06 01:30:44;;;;;;;4.78;1.50;;;29.60;99.90;;;;;;4977490;28;20034;-56
2023/06/06 01:33:36;;;;;;;7.30;1.65;;;29.60;99.90;;;;;;4975207;28;20039;-58
2023/06/06 01:36:24;;;;;;;4.53;1.65;;;29.60;99.90;;;;;;4965754;29;20089;-58
2023/06/06 01:39:03;;;;;;;6.07;1.50;;;29.60;99.90;;;;;;4966102;29;20031;-57
2023/06/06 01:41:33;;;;;;;3.53;1.50;;;29.60;99.90;;;;;;4965235;29;20027;-59
2023/06/06 01:44:01;;;;;;;3.88;1.48;;;29.70;99.90;;;;;;4966046;29;20054;-56
2023/06/06 01:46:29;;;;;;;4.70;1.30;;;29.80;99.90;;;;;;4965591;29;20094;-58
2023/06/06 01:48:56;;;;;;;4.90;1.30;;;29.80;99.90;;;;;;4972199;28;20038;-60
2023/06/06 01:51:27;;;;;;;3.90;1.35;;;29.90;99.90;;;;;;4984870;28;20058;-60
2023/06/06 01:53:56;;;;;;;5.35;1.33;;;29.90;99.90;;;;;;4985233;28;20031;-59
2023/06/06 01:56:24;;;;;;;5.07;1.33;;;29.90;99.90;;;;;;4984249;28;20322;-56
2023/06/06 01:58:51;;;;;;;2.88;1.30;;;29.90;99.90;;;;;;4985186;28;20242;-56
2023/06/06 02:01:17;;;;;;;4.25;1.27;;;29.90;99.90;;;;;;4984878;28;20098;-58
2023/06/06 02:03:46;;;;;;;2.50;1.40;;;29.80;99.90;;;;;;4985030;28;20069;-58
2023/06/06 02:06:13;;;;;;;3.58;1.40;;;29.90;99.90;;;;;;4984751;28;20026;-59
2023/06/06 02:08:39;;;;;;;2.53;1.23;;;29.80;99.90;;;;;;4984995;28;20030;-58
2023/06/06 02:11:06;;;;;;;3.38;1.05;;;29.80;99.90;;;;;;4984254;28;20022;-62
2023/06/06 02:13:32;;;;;;;1.95;0.90;;;29.80;99.90;;;;;;4985141;28;20306;-57
2023/06/06 02:16:00;;;;;;;2.88;1.00;;;29.80;99.90;;;;;;4984645;28;20027;-58
2023/06/06 02:18:28;;;;;;;2.20;0.90;;;29.80;99.90;;;;;;4984716;28;20090;-57
2023/06/06 02:20:55;;;;;;;3.00;1.08;;;29.80;99.90;;;;;;4972623;28;20030;-57
2023/06/06 02:23:21;;;;;;;2.25;1.00;;;29.80;99.90;;;;;;4969767;28;20074;-58
2023/06/06 02:25:50;;;;;;;2.00;1.10;;;29.80;99.90;;;;;;4979538;28;20097;-56
2023/06/06 02:28:17;;;;;;;2.00;0.80;;;29.90;99.90;;;;;;4984655;28;20192;-57
2023/06/06 02:30:45;;;;;;;2.50;1.00;;;29.80;99.90;;;;;;4984799;28;20070;-58
2023/06/06 02:33:11;;;;;;;1.42;0.77;;;29.80;99.90;;;;;;4986097;28;20039;-57
2023/06/06 02:35:38;;;;;;;1.98;1.05;;;29.80;99.90;;;;;;4988006;28;20230;-59
2023/06/06 02:38:05;;;;;;;3.08;1.00;;;29.80;99.90;;;;;;4987495;28;20219;-58
2023/06/06 02:40:31;;;;;;;1.92;0.77;;;29.90;99.90;;;;;;4978904;28;20127;-58
2023/06/06 02:42:59;;;;;;;2.72;0.80;;;29.90;99.90;;;;;;4968464;29;20035;-59
2023/06/06 02:45:26;;;;;;;1.67;0.73;;;29.80;99.90;;;;;;4968703;29;20037;-59
2023/06/06 02:47:52;;;;;;;1.20;0.70;;;29.80;99.90;;;;;;4968857;29;20272;-56
2023/06/06 02:50:20;;;;;;;1.67;0.80;;;29.80;99.90;;;;;;4968399;29;20027;-57
2023/06/06 02:52:47;;;;;;;2.22;0.70;;;29.80;99.90;;;;;;4968471;29;20034;-57
2023/06/06 02:55:13;;;;;;;2.35;0.70;;;29.80;99.90;;;;;;4967952;29;20031;-56
2023/06/06 02:57:40;;;;;;;1.35;0.70;;;29.80;99.90;;;;;;4968479;29;20063;-58
2023/06/06 03:00:08;;;;;;;2.45;0.65;;;29.80;99.90;;;;;;4951269;29;20019;-57
2023/06/06 03:02:35;;;;;;;2.75;0.75;;;29.80;99.90;;;;;;4971278;28;20038;-53
2023/06/06 03:05:04;;;;;;;2.92;0.85;;;29.90;99.90;;;;;;4972098;28;20331;-59
2023/06/06 03:07:32;;;;;;;1.95;0.80;;;29.70;99.90;;;;;;4975932;28;20035;-57
2023/06/06 03:09:58;;;;;;;2.50;0.55;;;29.70;99.90;;;;;;4976215;28;20312;-58
2023/06/06 03:12:25;;;;;;;2.80;0.70;;;29.60;99.90;;;;;;4968203;29;20046;-60
2023/06/06 03:14:52;;;;;;;2.88;0.68;;;29.60;99.90;;;;;;4968072;29;20027;-57
2023/06/06 03:17:19;;;;;;;4.90;0.70;;;29.70;99.90;;;;;;4968052;29;20315;-58
2023/06/06 03:19:48;;;;;;;1.00;0.55;;;29.70;99.90;;;;;;4968719;29;20042;-61
2023/06/06 03:22:17;;;;;;;1.67;0.75;;;29.70;99.90;;;;;;4967922;29;20248;-55
2023/06/06 03:24:49;;;;;;;2.13;0.70;;;29.70;99.90;;;;;;4967490;29;20027;-54
2023/06/06 03:27:16;;;;;;;2.22;0.50;;;29.70;99.90;;;;;;4967859;29;20342;-54
2023/06/06 03:29:43;;;;;;;3.90;0.70;;;29.70;99.90;;;;;;4967802;29;20027;-57
2023/06/06 03:32:10;;;;;;;2.00;0.52;;;29.60;99.90;;;;;;4967670;29;20027;-58
2023/06/06 03:34:39;;;;;;;1.05;0.40;;;29.60;99.90;;;;;;4968831;28;20319;-56
2023/06/06 03:37:06;;;;;;;1.55;0.52;;;29.60;99.90;;;;;;4976984;28;20295;-55
2023/06/06 03:39:33;;;;;;;2.97;0.70;;;29.60;99.90;;;;;;4967117;28;20074;-54
2023/06/06 03:41:59;;;;;;;1.65;0.50;;;29.60;99.90;;;;;;4976933;28;20035;-57
2023/06/06 03:44:26;;;;;;;2.78;0.60;;;29.70;99.90;;;;;;4966985;28;20082;-60
2023/06/06 03:46:54;;;;;;;2.22;0.57;;;29.70;99.90;;;;;;4967504;29;20077;-59
2023/06/06 03:49:20;;;;;;;2.78;0.50;;;29.60;99.90;;;;;;4968115;29;20227;-57
2023/06/06 03:51:47;;;;;;;3.53;0.80;;;29.60;99.90;;;;;;4967504;29;20019;-59
2023/06/06 03:54:13;;;;;;;2.38;0.65;;;29.60;99.90;;;;;;4967300;29;20251;-57
2023/06/06 03:56:42;;;;;;;1.58;0.55;;;29.60;99.90;;;;;;4967533;29;20051;-59
2023/06/06 03:59:12;;;;;;;3.80;0.40;;;29.60;99.90;;;;;;4967808;29;20094;-58
2023/06/06 04:01:40;;;;;;;1.42;0.38;;;29.70;99.90;;;;;;4967119;29;20023;-57
2023/06/06 04:04:08;;;;;;;1.77;0.70;;;29.60;99.90;;;;;;4967120;29;20035;-55
2023/06/06 04:06:37;;;;;;;2.97;0.43;;;29.60;99.90;;;;;;4967201;29;20351;-56
2023/06/06 04:09:04;;;;;;;2.22;0.55;;;29.60;99.90;;;;;;4967213;29;20065;-55
2023/06/06 04:11:31;;;;;;;1.17;0.50;;;29.60;99.90;;;;;;4974046;28;20034;-57
2023/06/06 04:13:57;;;;;;;1.05;0.45;;;29.60;99.90;;;;;;4976851;28;20037;-56
2023/06/06 04:16:24;;;;;;;3.90;0.47;;;29.60;99.90;;;;;;4977412;28;20020;-57
2023/06/06 04:18:52;;;;;;;3.00;0.40;;;29.70;99.90;;;;;;4961175;28;20023;-55
2023/06/06 04:21:19;;;;;;;1.23;0.50;;;29.60;99.90;;;;;;4977596;28;20242;-55
2023/06/06 04:23:46;;;;;;;2.35;0.60;;;29.70;99.90;;;;;;4979891;28;20062;-56
2023/06/06 04:26:33;;;;;;;2.20;0.43;;;29.60;99.90;;;;;;4975110;28;20023;-58
2023/06/06 04:29:00;;;;;;;2.85;0.68;;;29.70;99.90;;;;;;4979190;28;20058;-56
2023/06/06 04:31:30;;;;;;;4.68;0.50;;;29.60;99.90;;;;;;4981635;28;20030;-57
2023/06/06 04:33:57;;;;;;;2.97;0.55;;;29.60;99.90;;;;;;4985925;28;20078;-56
2023/06/06 04:36:24;;;;;;;1.52;0.50;;;29.60;99.90;;;;;;4985855;28;20038;-57
2023/06/06 04:38:51;;;;;;;2.80;0.40;;;29.60;99.90;;;;;;4986059;28;20398;-57
2023/06/06 04:41:20;;;;;;;3.50;0.50;;;29.70;99.90;;;;;;4984190;28;20045;-56
2023/06/06 04:43:49;;;;;;;1.58;0.40;;;29.70;99.90;;;;;;4969388;28;20081;-56
2023/06/06 04:46:23;;;;;;;3.50;0.55;;;29.70;99.90;;;;;;4972876;28;20397;-57
2023/06/06 04:48:53;;;;;;;1.20;0.40;;;29.70;99.90;;;;;;4975243;28;20031;-60
2023/06/06 04:51:32;;;;;;;1.92;0.45;;;29.60;99.90;;;;;;4966476;29;20035;-59
2023/06/06 04:54:01;;;;;;;3.22;0.52;;;29.70;99.90;;;;;;4966310;29;20027;-57
2023/06/06 04:56:31;;;;;;;3.15;0.45;;;29.60;99.90;;;;;;4965194;28;20027;-60
2023/06/06 04:59:06;;;;;;;3.80;0.57;;;29.50;99.90;;;;;;4966675;29;20035;-57
2023/06/06 05:01:36;;;;;;;3.70;0.60;;;29.70;99.90;;;;;;4973511;28;20319;-56
2023/06/06 05:04:06;;;;;;;3.58;0.45;;;29.60;99.90;;;;;;4985429;28;20073;-56
2023/06/06 05:06:34;;;;;;;3.25;0.45;;;29.60;99.90;;;;;;4985458;28;20044;-57
2023/06/06 05:09:07;;;;;;;2.35;0.30;;;29.70;99.90;;;;;;4985637;28;20038;-55
2023/06/06 05:11:34;;;;;;;4.13;0.60;;;29.60;99.90;;;;;;4985437;28;20027;-58
2023/06/06 05:14:02;;;;;;;2.40;0.57;;;29.60;99.90;;;;;;4968294;28;20026;-57
2023/06/06 05:16:28;;;;;;;1.98;0.52;;;29.60;99.90;;;;;;4985184;28;20083;-58
2023/06/06 05:18:55;;;;;;;3.28;0.50;;;29.60;99.90;;;;;;4985658;28;20069;-57
2023/06/06 05:21:22;;;;;;;2.88;0.60;;;29.60;99.90;;;;;;4985365;28;20030;-57
2023/06/06 05:23:48;;;;;;;3.67;0.43;;;29.60;99.90;;;;;;4985480;28;20203;-57
2023/06/06 05:26:15;;;;;;;3.08;0.32;;;29.60;99.90;;;;;;4985317;28;20042;-57
2023/06/06 05:28:41;;;;;;;1.98;0.45;;;29.70;99.90;;;;;;4985622;28;20042;-58
2023/06/06 05:31:08;;;;;;;3.45;0.60;;;29.70;99.90;;;;;;4984993;28;20269;-60
2023/06/06 05:33:39;;;;;;;4.68;0.68;;;29.70;99.90;;;;;;4985481;28;20042;-56
2023/06/06 05:36:05;;;;;;;7.68;0.70;;;29.70;99.90;;;;;;4985148;28;20034;-59
2023/06/06 05:38:32;;;;;;;1.65;0.45;;;29.70;99.90;;;;;;4985216;28;20046;-57
2023/06/06 05:40:59;;;;;;;2.78;0.40;;;29.60;99.90;;;;;;4985021;28;20077;-56
2023/06/06 05:43:26;;;;;;;3.53;0.43;;;29.70;99.90;;;;;;4985279;28;20085;-59
2023/06/06 05:45:52;;;;;;;4.88;0.50;;;29.60;99.90;;;;;;4967940;28;20088;-61
2023/06/06 05:48:19;;;;;;;2.42;0.40;;;29.70;99.90;;;;;;4984867;28;20041;-59
2023/06/06 05:50:45;;;;;;;3.65;0.50;;;29.70;99.90;;;;;;4985183;28;20030;-59
2023/06/06 05:53:12;;;;;;;2.30;0.43;;;29.60;99.90;;;;;;4985163;28;20333;-55
2023/06/06 05:55:38;;;;;;;3.53;0.45;;;29.60;99.90;;;;;;4985109;28;20042;-60
2023/06/06 05:58:05;;;;;;;2.47;0.40;;;29.60;99.90;;;;;;4976562;28;20070;-57
2023/06/06 06:00:33;;;;;;;4.90;0.38;;;29.60;99.90;;;;;;4980695;28;20310;-56
2023/06/06 06:03:01;;;;;;;4.53;0.73;;;29.70;99.90;;;;;;4984970;28;20043;-58
2023/06/06 06:05:28;;;;;;;4.15;0.60;;;29.70;99.90;;;;;;4985039;28;20062;-56
2023/06/06 06:08:01;;;;;;;4.72;0.50;;;29.70;99.90;;;;;;4986141;28;20035;-56
2023/06/06 06:10:34;;;;;;;2.13;0.30;;;29.70;99.90;;;;;;4988938;28;20094;-62
2023/06/06 06:13:01;;;;;;;3.95;0.63;;;29.70;99.90;;;;;;4988794;28;20034;-57
2023/06/06 06:15:31;;;;;;;1.90;0.50;;;29.70;99.90;;;;;;4988249;28;20061;-58
2023/06/06 06:17:58;;;;;;;2.67;0.40;;;29.70;99.90;;;;;;4988553;28;20034;-58
2023/06/06 06:20:24;;;;;;;3.33;0.45;;;29.70;99.90;;;;;;4988431;28;20184;-59
2023/06/06 06:22:51;;;;;;;2.35;0.40;;;29.70;99.90;;;;;;4988447;28;20031;-58
2023/06/06 06:25:17;;;;;;;2.97;0.50;;;29.70;99.90;;;;;;4988450;28;20085;-55
2023/06/06 06:27:45;;;;;;;3.58;0.47;;;29.80;99.90;;;;;;4988353;28;20023;-58
2023/06/06 06:30:13;;;;;;;1.23;0.40;;;29.70;99.90;;;;;;4979775;28;20090;-57
2023/06/06 06:32:41;;;;;;;2.10;0.43;;;29.70;99.90;;;;;;4985036;28;20075;-57
2023/06/06 06:35:08;;;;;;;3.80;0.60;;;29.70;99.90;;;;;;4988077;28;20366;-57
2023/06/06 06:37:39;;;;;;;2.83;0.40;;;29.80;99.90;;;;;;4988009;28;20329;-58
2023/06/06 06:40:12;;;;;;;1.05;0.30;;;29.70;99.90;;;;;;4988109;28;20086;-57
2023/06/06 06:42:41;;;;;;;2.13;0.30;;;29.60;99.90;;;;;;4987978;28;20057;-54
2023/06/06 06:45:11;;;;;;;1.30;0.50;;;29.60;99.90;;;;;;4987933;28;20041;-56
2023/06/06 06:47:37;;;;;;;2.75;0.57;;;29.60;99.90;;;;;;4987978;28;20219;-58
2023/06/06 06:50:06;;;;;;;4.63;0.32;;;29.60;99.90;;;;;;4987796;28;20212;-57
2023/06/06 06:52:36;;;;;;;5.28;0.52;;;29.60;99.90;;;;;;4988231;28;20081;-56
2023/06/06 06:55:04;;;;;;;0.98;0.30;;;29.60;99.90;;;;;;4987839;28;20041;-55
2023/06/06 06:57:31;;;;;;;5.47;0.45;;;29.60;99.90;;;;;;4987609;28;20311;-55
2023/06/06 06:59:59;;;;;;;2.72;0.40;;;29.50;99.90;;;;;;4988049;28;20249;-56
2023/06/06 07:02:27;;;;;;;4.95;0.40;;;29.60;99.90;;;;;;4987965;28;20094;-60
2023/06/06 07:04:57;;;;;;;3.22;0.30;;;29.50;99.90;;;;;;4987499;28;20038;-59
2023/06/06 07:07:24;;;;;;;2.55;0.43;;;29.40;99.90;;;;;;4987585;28;20042;-61
2023/06/06 07:09:52;;;;;;;4.13;0.50;;;29.50;99.90;;;;;;4987401;28;20082;-60
2023/06/06 07:12:20;;;;;;;3.35;0.50;;;29.50;99.90;;;;;;4987369;28;20037;-61
2023/06/06 07:14:46;;;;;;;3.53;0.32;;;29.50;99.90;;;;;;4987516;28;20031;-59
2023/06/06 07:17:15;;;;;;;3.15;0.47;;;29.50;99.90;;;;;;4987523;28;20018;-58
2023/06/06 07:19:43;;;;;;;1.80;0.40;;;29.50;99.90;;;;;;4986949;28;20030;-59
2023/06/06 07:22:10;;;;;;;3.92;0.52;;;29.40;99.90;;;;;;4987235;28;20027;-57
2023/06/06 07:24:36;;;;;;;1.30;0.30;;;29.50;99.90;;;;;;4987446;28;20135;-58
2023/06/06 07:27:04;;;;;;;4.60;0.57;;;29.40;99.90;;;;;;4987020;28;20035;-59
2023/06/06 07:29:31;;;;;;;3.08;0.40;;;29.40;99.90;;;;;;4987221;28;20042;-56
2023/06/06 07:31:57;;;;;;;0.82;0.30;;;29.40;99.90;;;;;;4987282;28;20027;-56
2023/06/06 07:34:24;;;;;;;2.92;0.50;;;29.50;99.90;;;;;;4986949;28;20082;-60
2023/06/06 07:36:52;;;;;;;1.38;0.40;;;29.50;99.90;;;;;;4987197;28;20023;-61
2023/06/06 07:39:18;;;;;;;1.85;0.30;;;29.50;99.90;;;;;;4987628;28;20265;-60
2023/06/06 07:41:45;;;;;;;2.30;0.30;;;29.40;99.90;;;;;;4987053;28;20319;-59
2023/06/06 07:44:11;;;;;;;5.47;0.50;;;29.40;99.90;;;;;;4987885;28;20030;-58
2023/06/06 07:46:38;;;;;;;4.97;0.52;;;29.40;99.90;;;;;;4986952;28;20023;-62
2023/06/06 07:49:04;;;;;;;4.13;0.55;;;29.40;99.90;;;;;;4987107;28;20041;-58
2023/06/06 07:51:31;;;;;;;6.50;0.40;;;29.40;99.90;;;;;;4987203;28;20315;-57
2023/06/06 07:53:57;;;;;;;3.25;0.50;;;29.40;99.90;;;;;;4987145;28;20026;-58
2023/06/06 07:56:24;;;;;;;3.88;0.47;;;29.30;99.90;;;;;;4986689;28;20113;-59
2023/06/06 07:58:54;;;;;;;7.18;0.60;;;29.30;99.90;;;;;;4987047;28;20247;-61
2023/06/06 08:01:21;;;;;;;5.40;0.55;;;29.40;99.90;;;;;;4986594;28;20093;-61
2023/06/06 08:03:54;;;;;;;4.53;0.70;;;29.40;99.90;;;;;;4986717;28;20069;-56
2023/06/06 08:06:24;;;;;;;5.00;0.50;;;29.30;99.90;;;;;;4986603;28;20050;-63
2023/06/06 08:08:51;;;;;;;6.20;0.77;;;29.40;99.90;;;;;;4987036;28;20074;-61
2023/06/06 08:11:18;;;;;;;3.15;0.57;;;29.30;99.90;;;;;;4986466;28;20346;-59
2023/06/06 08:13:44;;;;;;;2.63;0.50;;;29.40;99.90;;;;;;4986633;28;20031;-56
2023/06/06 08:16:11;;;;;;;4.32;0.50;;;29.30;99.90;;;;;;4986424;28;20389;-56
2023/06/06 08:18:40;;;;;;;3.00;0.45;;;29.30;99.90;;;;;;4986552;28;20039;-59
2023/06/06 08:21:07;;;;;;;3.80;0.50;;;29.30;99.90;;;;;;4986293;28;20018;-56
2023/06/06 08:23:33;;;;;;;2.45;0.60;;;29.30;99.90;;;;;;4986466;28;20081;-57
2023/06/06 08:26:00;;;;;;;4.53;0.50;;;29.30;99.90;;;;;;4986822;28;20031;-60
2023/06/06 08:28:28;;;;;;;3.40;0.52;;;29.30;99.90;;;;;;4987045;28;20030;-59
2023/06/06 08:30:54;;;;;;;3.47;0.30;;;29.30;99.90;;;;;;4985912;28;20223;-62
2023/06/06 08:33:21;;;;;;;4.20;0.70;;;29.20;99.90;;;;;;4986160;28;20069;-62
2023/06/06 08:35:48;;;;;;;4.60;0.65;;;29.20;99.90;;;;;;4985986;28;20028;-64
2023/06/06 08:38:15;;;;;;;4.68;0.63;;;29.20;99.90;;;;;;4986113;28;20231;-64
2023/06/06 08:40:43;;;;;;;4.63;0.70;;;29.20;99.90;;;;;;4985808;28;20022;-62
2023/06/06 08:43:12;;;;;;;4.78;0.70;;;29.20;99.90;;;;;;4986352;28;20025;-61
2023/06/06 08:45:51;;;;;;;4.25;0.50;;;29.20;99.90;;;;;;4985908;28;20035;-61
2023/06/06 08:48:18;;;;;;;5.35;0.60;;;29.20;99.90;;;;;;4985966;28;20061;-58
2023/06/06 08:50:45;;;;;;;1.95;0.60;;;29.10;99.90;;;;;;4985737;28;20041;-59
2023/06/06 08:53:15;;;;;;;3.03;0.60;;;29.10;99.90;;;;;;4985823;28;20311;-58
2023/06/06 08:55:41;;;;;;;6.85;1.00;;;29.10;99.90;;;;;;4986032;28;20080;-61
2023/06/06 08:58:10;;;;;;;4.45;0.60;;;29.10;99.90;;;;;;4985918;28;20086;-61
2023/06/06 09:00:36;;;;;;;5.65;0.80;;;29.10;99.90;;;;;;4985521;28;20334;-58
2023/06/06 09:03:06;;;;;;;3.83;0.73;;;29.10;99.90;;;;;;4985739;28;20037;-58
2023/06/06 09:05:37;;;;;;;6.22;0.82;;;29.10;99.90;;;;;;4985518;28;20081;-57
2023/06/06 09:08:05;;;;;;;2.47;0.50;;;29.10;99.90;;;;;;4985614;28;20027;-57
2023/06/06 09:10:31;;;;;;;5.55;0.63;;;29.00;99.90;;;;;;4985337;28;20042;-58
2023/06/06 09:12:58;;;;;;;1.92;0.60;;;29.00;99.90;;;;;;4985729;28;20062;-56
2023/06/06 09:15:27;;;;;;;5.28;0.57;;;29.10;99.90;;;;;;4985371;28;20031;-60
2023/06/06 09:17:55;;;;;;;2.25;0.50;;;29.10;99.90;;;;;;4985418;28;20358;-58
2023/06/06 09:20:24;;;;;;;3.35;0.47;;;29.00;99.90;;;;;;4985834;28;20015;-59
2023/06/06 09:22:51;;;;;;;2.95;0.47;;;29.10;99.90;;;;;;4985228;28;20113;-56
2023/06/06 09:25:24;;;;;;;3.88;0.65;;;29.10;99.90;;;;;;4985332;28;20065;-60
2023/06/06 09:28:01;;;;;;;5.35;0.50;;;29.00;99.90;;;;;;4985423;28;20263;-57
2023/06/06 09:30:30;;;;;;;2.75;0.43;;;29.10;99.90;;;;;;4985079;28;20105;-57
2023/06/06 09:33:00;;;;;;;3.65;0.55;;;29.00;99.90;;;;;;4985318;28;20026;-57
2023/06/06 09:35:33;;;;;;;1.33;0.20;;;29.00;99.90;;;;;;4984947;28;20042;-59
2023/06/06 09:38:08;;;;;;;2.00;0.45;;;29.00;99.90;;;;;;4985211;28;20038;-59
2023/06/06 09:40:50;;;;;;;1.48;0.22;;;29.00;99.90;;;;;;4984922;28;20101;-58
2023/06/06 09:43:24;;;;;;;2.10;0.43;;;29.00;99.90;;;;;;4985144;28;20027;-62
2023/06/06 09:45:52;;;;;;;2.97;0.40;;;28.90;99.90;;;;;;4984788;28;20091;-61
2023/06/06 09:48:23;;;;;;;2.83;0.35;;;29.00;99.90;;;;;;4985371;28;20282;-61
2023/06/06 09:50:50;;;;;;;1.52;0.30;;;28.90;99.90;;;;;;4985088;28;20026;-61
2023/06/06 09:53:17;;;;;;;4.43;0.40;;;28.90;99.90;;;;;;4984942;28;20311;-57
2023/06/06 09:55:44;;;;;;;2.42;0.32;;;28.90;99.90;;;;;;4984916;28;20041;-58
2023/06/06 09:58:15;;;;;;;4.05;0.40;;;29.00;99.90;;;;;;4985043;28;20057;-57
2023/06/06 10:00:45;;;;;;;3.50;0.50;;;29.00;99.90;;;;;;4985029;28;20018;-59
2023/06/06 10:03:22;;;;;;;3.00;0.50;;;28.90;99.90;;;;;;4984999;28;20041;-59
2023/06/06 10:05:50;;;;;;;1.73;0.40;;;29.00;99.90;;;;;;4985006;28;20031;-60
2023/06/06 10:08:18;;;;;;;5.18;0.50;;;28.90;99.90;;;;;;4985026;28;20315;-60
2023/06/06 10:10:48;;;;;;;2.25;0.70;;;28.90;99.90;;;;;;4984818;28;20026;-61
2023/06/06 10:13:22;;;;;;;3.67;0.55;;;28.90;99.90;;;;;;4985077;28;20027;-61
2023/06/06 10:15:52;;;;;;;4.18;0.77;;;28.90;99.90;;;;;;4984483;28;20045;-59
2023/06/06 10:18:20;;;;;;;5.43;0.60;;;28.90;99.90;;;;;;4984774;28;20031;-60
2023/06/06 10:20:46;;;;;;;6.00;0.60;;;28.90;99.90;;;;;;4984875;28;20066;-64
2023/06/06 10:23:13;;;;;;;4.72;0.80;;;28.90;99.90;;;;;;4985474;28;20034;-62
2023/06/06 10:25:40;;;;;;;5.53;0.88;;;28.90;99.90;;;;;;4984477;28;20019;-59
2023/06/06 10:28:19;;;;;;;3.97;0.70;;;28.90;99.90;;;;;;4984796;28;20070;-60
2023/06/06 10:31:06;;;;;;;5.25;0.80;;;28.90;99.90;;;;;;4984791;28;20069;-58
2023/06/06 10:34:04;;;;;;;4.50;0.60;;;28.90;99.90;;;;;;4984537;28;20099;-59
2023/06/06 10:36:40;;;;;;;3.40;1.15;;;28.90;99.90;;;;;;4980134;28;20039;-58
2023/06/06 10:39:19;;;;;;;5.78;0.73;;;28.90;99.90;;;;;;4984953;28;20211;-62
2023/06/06 10:41:53;;;;;;;3.60;1.00;;;28.90;99.90;;;;;;4984759;28;20089;-61
2023/06/06 10:44:26;;;;;;;6.35;1.02;;;29.00;99.90;;;;;;4984787;28;20141;-60
2023/06/06 10:47:23;;;;;;;10.73;1.92;;;28.90;99.90;;;;;;4984211;28;20023;-57
2023/06/06 10:50:11;;;;;;;5.93;1.90;;;28.90;99.90;;;;;;4984642;28;20035;-61
2023/06/06 10:52:50;;;;;;;5.68;1.55;;;28.90;99.90;;;;;;4984407;28;20035;-60
2023/06/06 10:55:20;;;;;;;3.38;1.80;;;28.90;99.90;;;;;;4987453;28;20373;-58
2023/06/06 10:58:13;;;;;;;6.28;1.98;;;28.90;99.90;;;;;;4987754;28;20216;-58
2023/06/06 11:00:46;;;;;;;5.15;1.63;;;28.90;99.90;;;;;;4987646;28;20023;-58
2023/06/06 11:03:15;;;;;;;8.25;1.58;;;28.90;99.90;;;;;;4987896;28;20050;-57
2023/06/06 11:06:00;;;;;;;5.65;1.35;;;28.90;99.90;;;;;;4987650;28;20027;-60
2023/06/06 11:08:47;;;;;;;8.90;1.63;;;28.90;99.90;;;;;;4988062;28;20247;-60
2023/06/06 11:11:30;;;;;;;5.13;1.20;;;29.00;99.90;;;;;;4987704;28;20085;-59
2023/06/06 11:14:02;;;;;;;4.15;1.40;;;28.90;99.90;;;;;;4988059;28;20031;-57
2023/06/06 11:16:29;;;;;;;10.32;1.35;;;28.90;99.90;;;;;;4987531;28;20026;-58
2023/06/06 11:19:04;;;;;;;2.50;1.15;;;28.90;99.90;;;;;;4987748;28;20037;-58
2023/06/06 11:21:33;;;;;;;7.90;1.45;;;28.90;99.90;;;;;;4987312;28;20360;-61
2023/06/06 11:24:01;;;;;;;6.45;1.35;;;28.90;99.90;;;;;;4987781;28;20094;-61
2023/06/06 11:26:28;;;;;;;4.75;1.40;;;29.00;99.90;;;;;;4987369;28;20331;-60
2023/06/06 11:28:56;;;;;;;9.52;1.50;;;28.90;99.90;;;;;;4987609;28;20109;-59
2023/06/06 11:31:24;;;;;;;6.95;1.63;;;29.00;99.90;;;;;;4987276;28;20073;-60
2023/06/06 11:33:51;;;;;;;5.80;1.73;;;28.90;99.90;;;;;;4987074;28;20033;-59
2023/06/06 11:36:19;;;;;;;6.53;1.50;;;28.90;99.90;;;;;;4986860;28;20031;-60
2023/06/06 11:38:46;;;;;;;6.70;1.67;;;28.90;99.90;;;;;;4987395;28;20321;-59
2023/06/06 11:41:13;;;;;;;6.07;1.30;;;28.90;99.90;;;;;;4985347;28;20086;-61
2023/06/06 11:43:50;;;;;;;7.15;1.30;;;28.90;99.90;;;;;;4985767;28;20349;-57
2023/06/06 11:46:18;;;;;;;3.83;1.60;;;28.90;99.90;;;;;;4978968;28;20038;-59
2023/06/06 11:48:44;;;;;;;8.68;1.42;;;28.90;99.90;;;;;;4980153;28;20244;-59
2023/06/06 11:51:12;;;;;;;4.70;1.25;;;28.90;99.90;;;;;;4967656;29;20030;-61
2023/06/06 11:53:39;;;;;;;8.77;1.42;;;28.90;99.90;;;;;;4968010;29;20362;-61
2023/06/06 11:56:06;;;;;;;7.07;1.27;;;29.00;99.90;;;;;;4967648;29;20039;-61
2023/06/06 11:58:38;;;;;;;3.92;1.58;;;29.00;99.90;;;;;;4969080;28;20050;-60
2023/06/06 12:01:06;;;;;;;7.00;1.50;;;29.00;99.90;;;;;;4985655;28;20283;-59
2023/06/06 12:03:34;;;;;;;3.97;1.13;;;29.10;99.90;;;;;;4986878;28;20035;-59
2023/06/06 12:06:06;;;;;;;5.13;1.40;;;29.00;99.90;;;;;;4985678;28;20029;-59
2023/06/06 12:08:36;;;;;;;5.30;1.73;;;29.00;99.90;;;;;;4986934;28;20034;-59
2023/06/06 12:11:21;;;;;;;5.20;1.52;;;29.00;99.90;;;;;;4986371;28;20030;-56
2023/06/06 12:13:48;;;;;;;7.28;1.50;;;29.10;99.90;;;;;;4968352;28;20215;-62
2023/06/06 12:16:22;;;;;;;5.28;1.20;;;29.10;99.90;;;;;;4986674;28;20192;-62
2023/06/06 12:18:49;;;;;;;4.72;1.40;;;29.00;99.90;;;;;;4986855;28;20097;-62
2023/06/06 12:21:17;;;;;;;6.97;1.30;;;29.10;99.90;;;;;;4973539;28;20034;-64
2023/06/06 12:23:44;;;;;;;15.68;2.47;;;29.00;99.90;;;;;;4967556;29;20082;-62
2023/06/06 12:26:16;;;;;;;12.15;1.70;;;29.10;99.90;;;;;;4976759;28;20030;-56
2023/06/06 12:28:59;;;;;;;18.17;2.60;;;29.20;99.90;;;;;;4967493;29;20035;-56
2023/06/06 12:31:30;;;;;;;15.38;2.30;;;29.20;99.90;;;;;;4967241;29;20093;-61
2023/06/06 12:34:00;;;;;;;17.27;3.15;;;29.10;99.90;;;;;;4967706;29;20096;-60
2023/06/06 12:36:27;;;;;;;14.57;2.28;;;29.10;99.90;;;;;;4966821;29;20159;-59
2023/06/06 12:39:03;;;;;;;8.75;1.80;;;29.20;99.90;;;;;;4967157;29;20031;-56
2023/06/06 12:41:40;;;;;;;7.72;1.60;;;29.20;99.90;;;;;;4966472;29;20027;-59
2023/06/06 12:44:11;;;;;;;6.18;1.80;;;29.20;99.90;;;;;;4967020;29;20027;-56
2023/06/06 12:46:39;;;;;;;3.72;1.42;;;29.10;99.90;;;;;;4966532;29;20023;-61
2023/06/06 12:49:06;;;;;;;14.30;2.00;;;29.30;99.90;;;;;;4966918;29;20027;-59
2023/06/06 12:51:34;;;;;;;6.38;1.77;;;29.40;99.90;;;;;;4966526;29;20223;-57
2023/06/06 13:19:45;;;;;;;7.38;1.30;;;29.70;99.90;;;;;;4984932;28;20046;-58
2023/06/06 13:22:12;;;;;;;5.00;1.02;;;29.70;99.90;;;;;;4982082;28;20054;-60